sensor_id;sensor_type;location;lat;lon;timestamp;P1;durP1;ratioP1;P2;durP2;ratioP2
20379;SDS011;10349;48.666;8.948;2022-11-02T00:00:38;2.60;;;1.87;;
20379;SDS011;10349;48.666;8.948;2022-11-02T00:03:05;3.60;;;2.23;;
20379;SDS011;10349;48.666;8.948;2022-11-02T00:05:31;3.07;;;2.77;;
20379;SDS011;10349;48.666;8.948;2022-11-02T00:07:56;2.93;;;2.10;;
20379;SDS011;10349;48.666;8.948;2022-11-02T00:10:23;2.07;;;1.97;;
20379;SDS011;10349;48.666;8.948;2022-11-02T00:12:49;2.33;;;1.67;;
20379;SDS011;10349;48.666;8.948;2022-11-02T00:15:15;2.90;;;2.70;;
20379;SDS011;10349;48.666;8.948;2022-11-02T00:17:43;3.10;;;2.90;;
20379;SDS011;10349;48.666;8.948;2022-11-02T00:20:11;3.90;;;2.80;;
20379;SDS011;10349;48.666;8.948;2022-11-02T00:22:39;5.30;;;2.20;;
20379;SDS011;10349;48.666;8.948;2022-11-02T00:25:06;3.57;;;3.10;;
20379;SDS011;10349;48.666;8.948;2022-11-02T00:27:36;2.50;;;2.30;;
20379;SDS011;10349;48.666;8.948;2022-11-02T00:30:02;2.50;;;2.30;;
20379;SDS011;10349;48.666;8.948;2022-11-02T00:32:28;2.30;;;2.20;;
20379;SDS011;10349;48.666;8.948;2022-11-02T00:34:55;2.17;;;1.97;;
20379;SDS011;10349;48.666;8.948;2022-11-02T00:37:20;2.80;;;2.40;;
20379;SDS011;10349;48.666;8.948;2022-11-02T00:39:46;3.10;;;2.80;;
20379;SDS011;10349;48.666;8.948;2022-11-02T00:42:12;2.10;;;2.00;;
20379;SDS011;10349;48.666;8.948;2022-11-02T00:44:38;4.73;;;2.20;;
20379;SDS011;10349;48.666;8.948;2022-11-02T00:47:04;3.70;;;2.60;;
20379;SDS011;10349;48.666;8.948;2022-11-02T00:49:30;3.20;;;2.50;;
20379;SDS011;10349;48.666;8.948;2022-11-02T00:51:57;2.53;;;2.30;;
20379;SDS011;10349;48.666;8.948;2022-11-02T00:54:24;2.70;;;2.47;;
20379;SDS011;10349;48.666;8.948;2022-11-02T00:56:52;2.57;;;2.37;;
20379;SDS011;10349;48.666;8.948;2022-11-02T00:59:18;5.40;;;2.57;;
20379;SDS011;10349;48.666;8.948;2022-11-02T01:01:44;2.20;;;2.10;;
20379;SDS011;10349;48.666;8.948;2022-11-02T01:04:14;2.50;;;2.13;;
20379;SDS011;10349;48.666;8.948;2022-11-02T01:06:41;3.40;;;3.10;;
20379;SDS011;10349;48.666;8.948;2022-11-02T01:09:08;3.23;;;2.90;;
20379;SDS011;10349;48.666;8.948;2022-11-02T01:11:34;8.33;;;4.00;;
20379;SDS011;10349;48.666;8.948;2022-11-02T01:14:00;3.40;;;3.10;;
20379;SDS011;10349;48.666;8.948;2022-11-02T01:16:26;5.07;;;3.53;;
20379;SDS011;10349;48.666;8.948;2022-11-02T01:18:52;4.03;;;3.63;;
20379;SDS011;10349;48.666;8.948;2022-11-02T01:21:19;6.53;;;3.77;;
20379;SDS011;10349;48.666;8.948;2022-11-02T01:23:45;5.43;;;3.83;;
20379;SDS011;10349;48.666;8.948;2022-11-02T01:26:11;4.60;;;3.20;;
20379;SDS011;10349;48.666;8.948;2022-11-02T01:28:38;3.63;;;3.20;;
20379;SDS011;10349;48.666;8.948;2022-11-02T01:31:05;4.30;;;3.13;;
20379;SDS011;10349;48.666;8.948;2022-11-02T01:33:33;3.37;;;3.07;;
20379;SDS011;10349;48.666;8.948;2022-11-02T01:36:01;3.70;;;2.97;;
20379;SDS011;10349;48.666;8.948;2022-11-02T01:38:28;3.63;;;2.60;;
20379;SDS011;10349;48.666;8.948;2022-11-02T01:40:55;4.00;;;3.70;;
20379;SDS011;10349;48.666;8.948;2022-11-02T01:43:22;3.13;;;2.70;;
20379;SDS011;10349;48.666;8.948;2022-11-02T01:48:36;6.23;;;3.10;;
20379;SDS011;10349;48.666;8.948;2022-11-02T01:51:04;3.80;;;2.80;;
20379;SDS011;10349;48.666;8.948;2022-11-02T01:53:33;3.30;;;3.00;;
20379;SDS011;10349;48.666;8.948;2022-11-02T01:56:01;3.23;;;2.67;;
20379;SDS011;10349;48.666;8.948;2022-11-02T01:58:29;3.37;;;3.10;;
20379;SDS011;10349;48.666;8.948;2022-11-02T02:00:59;4.77;;;4.00;;
20379;SDS011;10349;48.666;8.948;2022-11-02T02:03:25;6.30;;;3.50;;
20379;SDS011;10349;48.666;8.948;2022-11-02T02:05:59;4.13;;;3.60;;
20379;SDS011;10349;48.666;8.948;2022-11-02T02:08:35;3.90;;;3.23;;
20379;SDS011;10349;48.666;8.948;2022-11-02T02:11:19;3.10;;;2.40;;
20379;SDS011;10349;48.666;8.948;2022-11-02T02:13:54;4.10;;;2.40;;
20379;SDS011;10349;48.666;8.948;2022-11-02T02:16:46;3.20;;;2.90;;
20379;SDS011;10349;48.666;8.948;2022-11-02T02:21:48;3.23;;;2.93;;
20379;SDS011;10349;48.666;8.948;2022-11-02T02:24:43;3.67;;;3.10;;
20379;SDS011;10349;48.666;8.948;2022-11-02T02:27:21;3.47;;;3.17;;
20379;SDS011;10349;48.666;8.948;2022-11-02T02:32:45;2.73;;;2.53;;
20379;SDS011;10349;48.666;8.948;2022-11-02T02:35:36;5.63;;;2.40;;
20379;SDS011;10349;48.666;8.948;2022-11-02T02:38:17;6.47;;;2.73;;
20379;SDS011;10349;48.666;8.948;2022-11-02T02:41:10;3.03;;;2.77;;
20379;SDS011;10349;48.666;8.948;2022-11-02T02:43:43;6.37;;;2.97;;
20379;SDS011;10349;48.666;8.948;2022-11-02T02:46:23;4.10;;;3.10;;
20379;SDS011;10349;48.666;8.948;2022-11-02T02:48:57;3.30;;;3.00;;
20379;SDS011;10349;48.666;8.948;2022-11-02T02:51:26;4.87;;;3.40;;
20379;SDS011;10349;48.666;8.948;2022-11-02T02:53:58;4.97;;;3.13;;
20379;SDS011;10349;48.666;8.948;2022-11-02T02:56:28;2.90;;;2.70;;
20379;SDS011;10349;48.666;8.948;2022-11-02T02:59:00;3.97;;;3.20;;
20379;SDS011;10349;48.666;8.948;2022-11-02T03:01:31;3.50;;;3.20;;
20379;SDS011;10349;48.666;8.948;2022-11-02T03:03:57;3.37;;;3.17;;
20379;SDS011;10349;48.666;8.948;2022-11-02T03:06:25;3.20;;;2.80;;
20379;SDS011;10349;48.666;8.948;2022-11-02T03:17:45;5.90;;;3.13;;
20379;SDS011;10349;48.666;8.948;2022-11-02T03:20:50;3.43;;;3.13;;
20379;SDS011;10349;48.666;8.948;2022-11-02T03:26:04;3.13;;;2.83;;
20379;SDS011;10349;48.666;8.948;2022-11-02T03:31:09;3.60;;;3.30;;
20379;SDS011;10349;48.666;8.948;2022-11-02T03:34:08;3.90;;;3.70;;
20379;SDS011;10349;48.666;8.948;2022-11-02T03:36:45;7.00;;;4.10;;
20379;SDS011;10349;48.666;8.948;2022-11-02T03:39:46;8.10;;;3.53;;
20379;SDS011;10349;48.666;8.948;2022-11-02T03:42:20;3.93;;;3.63;;
20379;SDS011;10349;48.666;8.948;2022-11-02T03:44:56;5.60;;;3.30;;
20379;SDS011;10349;48.666;8.948;2022-11-02T03:47:26;3.20;;;3.00;;
20379;SDS011;10349;48.666;8.948;2022-11-02T03:49:59;5.00;;;2.67;;
20379;SDS011;10349;48.666;8.948;2022-11-02T03:52:28;4.60;;;3.43;;
20379;SDS011;10349;48.666;8.948;2022-11-02T03:54:59;3.67;;;3.33;;
20379;SDS011;10349;48.666;8.948;2022-11-02T03:57:35;3.07;;;2.87;;
20379;SDS011;10349;48.666;8.948;2022-11-02T04:00:12;3.80;;;3.50;;
20379;SDS011;10349;48.666;8.948;2022-11-02T04:02:40;5.87;;;3.30;;
20379;SDS011;10349;48.666;8.948;2022-11-02T04:05:09;3.60;;;3.27;;
20379;SDS011;10349;48.666;8.948;2022-11-02T04:07:36;3.63;;;3.27;;
20379;SDS011;10349;48.666;8.948;2022-11-02T04:10:23;7.50;;;3.57;;
20379;SDS011;10349;48.666;8.948;2022-11-02T04:12:48;4.80;;;3.80;;
20379;SDS011;10349;48.666;8.948;2022-11-02T04:15:33;4.07;;;3.60;;
20379;SDS011;10349;48.666;8.948;2022-11-02T04:17:58;2.70;;;2.50;;
20379;SDS011;10349;48.666;8.948;2022-11-02T04:20:43;3.17;;;2.90;;
20379;SDS011;10349;48.666;8.948;2022-11-02T04:23:14;3.33;;;3.00;;
20379;SDS011;10349;48.666;8.948;2022-11-02T04:25:58;4.40;;;3.10;;
20379;SDS011;10349;48.666;8.948;2022-11-02T04:28:34;5.50;;;4.03;;
20379;SDS011;10349;48.666;8.948;2022-11-02T04:31:00;6.30;;;3.27;;
20379;SDS011;10349;48.666;8.948;2022-11-02T04:33:30;3.63;;;3.33;;
20379;SDS011;10349;48.666;8.948;2022-11-02T04:36:04;3.63;;;2.20;;
20379;SDS011;10349;48.666;8.948;2022-11-02T04:38:32;3.87;;;2.93;;
20379;SDS011;10349;48.666;8.948;2022-11-02T04:41:27;2.73;;;2.53;;
20379;SDS011;10349;48.666;8.948;2022-11-02T04:44:23;5.00;;;2.60;;
20379;SDS011;10349;48.666;8.948;2022-11-02T04:46:57;3.43;;;2.47;;
20379;SDS011;10349;48.666;8.948;2022-11-02T04:49:26;3.10;;;2.90;;
20379;SDS011;10349;48.666;8.948;2022-11-02T04:51:52;6.20;;;3.30;;
20379;SDS011;10349;48.666;8.948;2022-11-02T04:54:19;3.10;;;2.90;;
20379;SDS011;10349;48.666;8.948;2022-11-02T04:56:48;4.60;;;3.63;;
20379;SDS011;10349;48.666;8.948;2022-11-02T04:59:16;3.23;;;3.03;;
20379;SDS011;10349;48.666;8.948;2022-11-02T05:01:42;3.23;;;2.47;;
20379;SDS011;10349;48.666;8.948;2022-11-02T05:04:08;3.20;;;3.00;;
20379;SDS011;10349;48.666;8.948;2022-11-02T05:06:35;4.57;;;3.30;;
20379;SDS011;10349;48.666;8.948;2022-11-02T05:09:01;5.50;;;3.47;;
20379;SDS011;10349;48.666;8.948;2022-11-02T05:11:28;7.10;;;3.70;;
20379;SDS011;10349;48.666;8.948;2022-11-02T05:13:55;5.60;;;3.57;;
20379;SDS011;10349;48.666;8.948;2022-11-02T05:16:21;5.10;;;3.43;;
20379;SDS011;10349;48.666;8.948;2022-11-02T05:18:49;3.97;;;3.67;;
20379;SDS011;10349;48.666;8.948;2022-11-02T05:21:16;3.57;;;3.27;;
20379;SDS011;10349;48.666;8.948;2022-11-02T05:23:42;4.70;;;3.47;;
20379;SDS011;10349;48.666;8.948;2022-11-02T05:26:09;5.00;;;3.70;;
20379;SDS011;10349;48.666;8.948;2022-11-02T05:28:38;6.83;;;3.90;;
20379;SDS011;10349;48.666;8.948;2022-11-02T05:31:05;4.90;;;4.37;;
20379;SDS011;10349;48.666;8.948;2022-11-02T05:33:32;5.23;;;3.80;;
20379;SDS011;10349;48.666;8.948;2022-11-02T05:36:04;3.33;;;2.90;;
20379;SDS011;10349;48.666;8.948;2022-11-02T05:38:32;2.90;;;2.70;;
20379;SDS011;10349;48.666;8.948;2022-11-02T05:40:59;4.27;;;3.50;;
20379;SDS011;10349;48.666;8.948;2022-11-02T05:43:28;6.93;;;3.97;;
20379;SDS011;10349;48.666;8.948;2022-11-02T05:45:56;4.30;;;4.00;;
20379;SDS011;10349;48.666;8.948;2022-11-02T05:48:24;7.20;;;3.50;;
20379;SDS011;10349;48.666;8.948;2022-11-02T05:50:54;15.50;;;8.07;;
20379;SDS011;10349;48.666;8.948;2022-11-02T05:53:21;10.90;;;6.23;;
20379;SDS011;10349;48.666;8.948;2022-11-02T05:55:48;13.30;;;7.53;;
20379;SDS011;10349;48.666;8.948;2022-11-02T05:58:13;10.73;;;6.50;;
20379;SDS011;10349;48.666;8.948;2022-11-02T06:00:39;17.20;;;6.57;;
20379;SDS011;10349;48.666;8.948;2022-11-02T06:03:05;8.30;;;5.17;;
20379;SDS011;10349;48.666;8.948;2022-11-02T06:05:31;5.60;;;5.10;;
20379;SDS011;10349;48.666;8.948;2022-11-02T06:07:58;9.83;;;5.70;;
20379;SDS011;10349;48.666;8.948;2022-11-02T06:10:24;7.87;;;4.60;;
20379;SDS011;10349;48.666;8.948;2022-11-02T06:12:55;7.50;;;3.70;;
20379;SDS011;10349;48.666;8.948;2022-11-02T06:15:23;2.77;;;2.57;;
20379;SDS011;10349;48.666;8.948;2022-11-02T06:17:49;2.83;;;2.63;;
20379;SDS011;10349;48.666;8.948;2022-11-02T06:20:15;7.77;;;3.23;;
20379;SDS011;10349;48.666;8.948;2022-11-02T06:22:42;5.13;;;2.83;;
20379;SDS011;10349;48.666;8.948;2022-11-02T06:25:08;8.10;;;3.00;;
20379;SDS011;10349;48.666;8.948;2022-11-02T06:27:34;3.20;;;2.90;;
20379;SDS011;10349;48.666;8.948;2022-11-02T06:30:02;3.83;;;2.47;;
20379;SDS011;10349;48.666;8.948;2022-11-02T06:32:28;4.07;;;2.00;;
20379;SDS011;10349;48.666;8.948;2022-11-02T06:34:56;2.73;;;2.53;;
20379;SDS011;10349;48.666;8.948;2022-11-02T06:37:22;11.30;;;3.20;;
20379;SDS011;10349;48.666;8.948;2022-11-02T06:39:49;3.33;;;2.30;;
20379;SDS011;10349;48.666;8.948;2022-11-02T06:42:14;3.37;;;2.80;;
20379;SDS011;10349;48.666;8.948;2022-11-02T06:44:46;4.10;;;2.50;;
20379;SDS011;10349;48.666;8.948;2022-11-02T06:47:14;2.97;;;2.60;;
20379;SDS011;10349;48.666;8.948;2022-11-02T06:49:40;9.30;;;2.73;;
20379;SDS011;10349;48.666;8.948;2022-11-02T06:52:06;2.83;;;2.50;;
20379;SDS011;10349;48.666;8.948;2022-11-02T06:54:32;3.90;;;2.03;;
20379;SDS011;10349;48.666;8.948;2022-11-02T06:56:57;4.23;;;2.70;;
20379;SDS011;10349;48.666;8.948;2022-11-02T06:59:23;4.20;;;2.10;;
20379;SDS011;10349;48.666;8.948;2022-11-02T07:01:49;6.70;;;1.90;;
20379;SDS011;10349;48.666;8.948;2022-11-02T07:04:18;3.63;;;2.47;;
20379;SDS011;10349;48.666;8.948;2022-11-02T07:06:44;8.13;;;2.73;;
20379;SDS011;10349;48.666;8.948;2022-11-02T07:09:09;7.87;;;2.70;;
20379;SDS011;10349;48.666;8.948;2022-11-02T07:11:35;4.47;;;2.03;;
20379;SDS011;10349;48.666;8.948;2022-11-02T07:14:01;3.43;;;2.47;;
20379;SDS011;10349;48.666;8.948;2022-11-02T07:16:27;7.33;;;2.53;;
20379;SDS011;10349;48.666;8.948;2022-11-02T07:18:53;7.13;;;3.30;;
20379;SDS011;10349;48.666;8.948;2022-11-02T07:21:20;3.57;;;2.20;;
20379;SDS011;10349;48.666;8.948;2022-11-02T07:23:46;3.40;;;2.70;;
20379;SDS011;10349;48.666;8.948;2022-11-02T07:26:12;5.60;;;2.97;;
20379;SDS011;10349;48.666;8.948;2022-11-02T07:28:37;4.30;;;2.13;;
20379;SDS011;10349;48.666;8.948;2022-11-02T07:31:03;4.33;;;2.97;;
20379;SDS011;10349;48.666;8.948;2022-11-02T07:33:29;4.83;;;2.70;;
20379;SDS011;10349;48.666;8.948;2022-11-02T07:35:55;4.17;;;2.90;;
20379;SDS011;10349;48.666;8.948;2022-11-02T07:38:21;2.83;;;2.33;;
20379;SDS011;10349;48.666;8.948;2022-11-02T07:40:47;5.90;;;2.80;;
20379;SDS011;10349;48.666;8.948;2022-11-02T07:43:14;7.53;;;3.20;;
20379;SDS011;10349;48.666;8.948;2022-11-02T07:45:46;2.17;;;2.07;;
20379;SDS011;10349;48.666;8.948;2022-11-02T07:48:13;4.47;;;2.77;;
20379;SDS011;10349;48.666;8.948;2022-11-02T07:50:38;2.90;;;2.00;;
20379;SDS011;10349;48.666;8.948;2022-11-02T07:53:04;3.27;;;3.07;;
20379;SDS011;10349;48.666;8.948;2022-11-02T07:55:33;4.23;;;3.07;;
20379;SDS011;10349;48.666;8.948;2022-11-02T07:58:00;3.20;;;2.93;;
20379;SDS011;10349;48.666;8.948;2022-11-02T08:00:27;5.00;;;2.63;;
20379;SDS011;10349;48.666;8.948;2022-11-02T08:02:55;5.70;;;3.67;;
20379;SDS011;10349;48.666;8.948;2022-11-02T08:05:22;7.10;;;3.20;;
20379;SDS011;10349;48.666;8.948;2022-11-02T08:07:59;2.20;;;1.83;;
20379;SDS011;10349;48.666;8.948;2022-11-02T08:10:27;4.37;;;2.23;;
20379;SDS011;10349;48.666;8.948;2022-11-02T08:12:54;8.20;;;1.50;;
20379;SDS011;10349;48.666;8.948;2022-11-02T08:15:20;1.73;;;1.63;;
20379;SDS011;10349;48.666;8.948;2022-11-02T08:17:46;1.57;;;1.30;;
20379;SDS011;10349;48.666;8.948;2022-11-02T08:20:13;1.43;;;1.10;;
20379;SDS011;10349;48.666;8.948;2022-11-02T08:22:39;1.30;;;1.20;;
20379;SDS011;10349;48.666;8.948;2022-11-02T08:25:05;3.83;;;1.40;;
20379;SDS011;10349;48.666;8.948;2022-11-02T08:27:32;1.63;;;0.90;;
20379;SDS011;10349;48.666;8.948;2022-11-02T08:29:57;3.23;;;1.23;;
20379;SDS011;10349;48.666;8.948;2022-11-02T08:32:23;1.30;;;1.20;;
20379;SDS011;10349;48.666;8.948;2022-11-02T08:34:49;3.70;;;1.60;;
20379;SDS011;10349;48.666;8.948;2022-11-02T08:37:14;5.03;;;1.60;;
20379;SDS011;10349;48.666;8.948;2022-11-02T08:39:40;2.60;;;1.33;;
20379;SDS011;10349;48.666;8.948;2022-11-02T08:42:06;5.43;;;1.50;;
20379;SDS011;10349;48.666;8.948;2022-11-02T08:44:31;3.00;;;1.70;;
20379;SDS011;10349;48.666;8.948;2022-11-02T08:46:57;3.77;;;2.10;;
20379;SDS011;10349;48.666;8.948;2022-11-02T08:49:23;1.40;;;1.30;;
20379;SDS011;10349;48.666;8.948;2022-11-02T08:51:49;1.23;;;1.13;;
20379;SDS011;10349;48.666;8.948;2022-11-02T08:54:14;2.90;;;1.17;;
20379;SDS011;10349;48.666;8.948;2022-11-02T08:56:40;2.33;;;1.33;;
20379;SDS011;10349;48.666;8.948;2022-11-02T08:59:06;1.67;;;1.57;;
20379;SDS011;10349;48.666;8.948;2022-11-02T09:01:32;3.73;;;1.60;;
20379;SDS011;10349;48.666;8.948;2022-11-02T09:03:58;2.53;;;2.33;;
20379;SDS011;10349;48.666;8.948;2022-11-02T09:06:24;3.93;;;1.10;;
20379;SDS011;10349;48.666;8.948;2022-11-02T09:08:49;1.40;;;1.13;;
20379;SDS011;10349;48.666;8.948;2022-11-02T09:11:15;3.27;;;1.07;;
20379;SDS011;10349;48.666;8.948;2022-11-02T09:13:41;4.17;;;1.80;;
20379;SDS011;10349;48.666;8.948;2022-11-02T09:16:07;2.23;;;1.63;;
20379;SDS011;10349;48.666;8.948;2022-11-02T09:18:33;10.90;;;2.23;;
20379;SDS011;10349;48.666;8.948;2022-11-02T09:21:02;2.00;;;1.10;;
20379;SDS011;10349;48.666;8.948;2022-11-02T09:23:29;5.70;;;2.00;;
20379;SDS011;10349;48.666;8.948;2022-11-02T09:25:56;2.10;;;1.23;;
20379;SDS011;10349;48.666;8.948;2022-11-02T09:28:23;3.83;;;1.93;;
20379;SDS011;10349;48.666;8.948;2022-11-02T09:30:48;3.60;;;2.00;;
20379;SDS011;10349;48.666;8.948;2022-11-02T09:33:14;1.90;;;1.53;;
20379;SDS011;10349;48.666;8.948;2022-11-02T09:35:43;1.97;;;1.30;;
20379;SDS011;10349;48.666;8.948;2022-11-02T09:38:10;3.60;;;1.77;;
20379;SDS011;10349;48.666;8.948;2022-11-02T09:40:37;3.23;;;1.37;;
20379;SDS011;10349;48.666;8.948;2022-11-02T09:43:12;3.17;;;1.30;;
20379;SDS011;10349;48.666;8.948;2022-11-02T09:49:08;2.43;;;1.50;;
20379;SDS011;10349;48.666;8.948;2022-11-02T09:51:39;3.47;;;1.90;;
20379;SDS011;10349;48.666;8.948;2022-11-02T09:56:40;1.70;;;1.37;;
20379;SDS011;10349;48.666;8.948;2022-11-02T09:59:12;3.00;;;1.23;;
20379;SDS011;10349;48.666;8.948;2022-11-02T10:05:11;1.80;;;1.33;;
20379;SDS011;10349;48.666;8.948;2022-11-02T10:10:32;10.07;;;1.70;;
20379;SDS011;10349;48.666;8.948;2022-11-02T10:13:18;2.77;;;1.40;;
20379;SDS011;10349;48.666;8.948;2022-11-02T10:18:25;5.37;;;1.67;;
20379;SDS011;10349;48.666;8.948;2022-11-02T10:20:53;2.03;;;1.63;;
20379;SDS011;10349;48.666;8.948;2022-11-02T10:25:56;4.63;;;1.00;;
20379;SDS011;10349;48.666;8.948;2022-11-02T10:28:25;3.60;;;1.03;;
20379;SDS011;10349;48.666;8.948;2022-11-02T10:30:53;1.67;;;1.57;;
20379;SDS011;10349;48.666;8.948;2022-11-02T10:33:21;3.00;;;1.40;;
20379;SDS011;10349;48.666;8.948;2022-11-02T10:38:50;5.80;;;2.23;;
20379;SDS011;10349;48.666;8.948;2022-11-02T10:44:29;1.77;;;1.33;;
20379;SDS011;10349;48.666;8.948;2022-11-02T10:47:02;4.87;;;1.37;;
20379;SDS011;10349;48.666;8.948;2022-11-02T10:52:24;5.43;;;1.70;;
20379;SDS011;10349;48.666;8.948;2022-11-02T10:54:59;1.93;;;1.53;;
20379;SDS011;10349;48.666;8.948;2022-11-02T10:57:24;2.53;;;2.00;;
20379;SDS011;10349;48.666;8.948;2022-11-02T11:02:50;2.00;;;1.80;;
20379;SDS011;10349;48.666;8.948;2022-11-02T11:08:48;3.50;;;1.67;;
20379;SDS011;10349;48.666;8.948;2022-11-02T11:11:13;2.37;;;1.20;;
20379;SDS011;10349;48.666;8.948;2022-11-02T11:16:39;3.10;;;1.10;;
20379;SDS011;10349;48.666;8.948;2022-11-02T11:21:45;2.30;;;1.63;;
20379;SDS011;10349;48.666;8.948;2022-11-02T11:24:18;5.30;;;2.30;;
20379;SDS011;10349;48.666;8.948;2022-11-02T11:26:49;2.80;;;2.10;;
20379;SDS011;10349;48.666;8.948;2022-11-02T11:29:40;2.40;;;1.50;;
20379;SDS011;10349;48.666;8.948;2022-11-02T11:32:23;5.30;;;1.80;;
20379;SDS011;10349;48.666;8.948;2022-11-02T11:34:55;2.60;;;1.37;;
20379;SDS011;10349;48.666;8.948;2022-11-02T11:37:29;6.73;;;1.93;;
20379;SDS011;10349;48.666;8.948;2022-11-02T11:39:57;3.63;;;1.43;;
20379;SDS011;10349;48.666;8.948;2022-11-02T11:42:33;6.63;;;1.60;;
20379;SDS011;10349;48.666;8.948;2022-11-02T11:45:13;2.00;;;1.53;;
20379;SDS011;10349;48.666;8.948;2022-11-02T11:47:54;2.03;;;1.10;;
20379;SDS011;10349;48.666;8.948;2022-11-02T11:50:32;8.63;;;1.40;;
20379;SDS011;10349;48.666;8.948;2022-11-02T11:54:51;3.60;;;1.07;;
20379;SDS011;10349;48.666;8.948;2022-11-02T12:01:15;3.23;;;1.73;;
20379;SDS011;10349;48.666;8.948;2022-11-02T12:03:52;4.40;;;1.30;;
20379;SDS011;10349;48.666;8.948;2022-11-02T12:28:27;1.70;;;1.20;;
20379;SDS011;10349;48.666;8.948;2022-11-02T12:31:18;1.77;;;1.10;;
20379;SDS011;10349;48.666;8.948;2022-11-02T12:33:59;1.40;;;1.00;;
20379;SDS011;10349;48.666;8.948;2022-11-02T12:36:43;3.33;;;1.40;;
20379;SDS011;10349;48.666;8.948;2022-11-02T12:44:37;3.93;;;1.23;;
20379;SDS011;10349;48.666;8.948;2022-11-02T12:47:24;2.37;;;1.20;;
20379;SDS011;10349;48.666;8.948;2022-11-02T12:52:58;2.40;;;1.10;;
20379;SDS011;10349;48.666;8.948;2022-11-02T12:55:46;3.77;;;1.50;;
20379;SDS011;10349;48.666;8.948;2022-11-02T12:58:22;1.93;;;1.10;;
20379;SDS011;10349;48.666;8.948;2022-11-02T13:00:54;2.70;;;1.33;;
20379;SDS011;10349;48.666;8.948;2022-11-02T13:06:36;2.40;;;1.20;;
20379;SDS011;10349;48.666;8.948;2022-11-02T13:09:06;4.40;;;1.30;;
20379;SDS011;10349;48.666;8.948;2022-11-02T13:11:55;2.70;;;1.30;;
20379;SDS011;10349;48.666;8.948;2022-11-02T13:14:28;2.33;;;1.20;;
20379;SDS011;10349;48.666;8.948;2022-11-02T13:17:04;1.67;;;1.10;;
20379;SDS011;10349;48.666;8.948;2022-11-02T13:19:41;1.97;;;1.37;;
20379;SDS011;10349;48.666;8.948;2022-11-02T13:22:11;4.70;;;1.10;;
20379;SDS011;10349;48.666;8.948;2022-11-02T13:24:40;4.90;;;1.40;;
20379;SDS011;10349;48.666;8.948;2022-11-02T13:27:19;5.60;;;1.10;;
20379;SDS011;10349;48.666;8.948;2022-11-02T13:29:53;6.80;;;1.50;;
20379;SDS011;10349;48.666;8.948;2022-11-02T13:34:52;1.77;;;1.33;;
20379;SDS011;10349;48.666;8.948;2022-11-02T13:37:24;1.60;;;1.00;;
20379;SDS011;10349;48.666;8.948;2022-11-02T13:39:56;1.67;;;1.57;;
20379;SDS011;10349;48.666;8.948;2022-11-02T13:48:06;1.43;;;1.27;;
20379;SDS011;10349;48.666;8.948;2022-11-02T13:50:48;3.53;;;1.37;;
20379;SDS011;10349;48.666;8.948;2022-11-02T13:53:21;1.30;;;1.00;;
20379;SDS011;10349;48.666;8.948;2022-11-02T13:55:55;2.20;;;0.93;;
20379;SDS011;10349;48.666;8.948;2022-11-02T13:58:52;2.13;;;1.27;;
20379;SDS011;10349;48.666;8.948;2022-11-02T14:01:28;1.10;;;1.00;;
20379;SDS011;10349;48.666;8.948;2022-11-02T14:04:09;3.47;;;1.37;;
20379;SDS011;10349;48.666;8.948;2022-11-02T14:06:51;1.23;;;1.10;;
20379;SDS011;10349;48.666;8.948;2022-11-02T14:09:25;5.13;;;1.33;;
20379;SDS011;10349;48.666;8.948;2022-11-02T14:12:10;2.07;;;0.97;;
20379;SDS011;10349;48.666;8.948;2022-11-02T14:15:35;2.70;;;1.60;;
20379;SDS011;10349;48.666;8.948;2022-11-02T14:20:35;4.83;;;1.03;;
20379;SDS011;10349;48.666;8.948;2022-11-02T14:25:52;2.20;;;0.90;;
20379;SDS011;10349;48.666;8.948;2022-11-02T14:28:30;3.10;;;1.33;;
20379;SDS011;10349;48.666;8.948;2022-11-02T14:42:19;3.73;;;1.20;;
20379;SDS011;10349;48.666;8.948;2022-11-02T14:45:08;2.03;;;1.30;;
20379;SDS011;10349;48.666;8.948;2022-11-02T14:47:36;1.80;;;0.93;;
20379;SDS011;10349;48.666;8.948;2022-11-02T14:52:35;1.40;;;1.30;;
20379;SDS011;10349;48.666;8.948;2022-11-02T15:00:31;1.40;;;1.07;;
20379;SDS011;10349;48.666;8.948;2022-11-02T15:03:03;1.83;;;1.10;;
20379;SDS011;10349;48.666;8.948;2022-11-02T15:05:33;7.77;;;1.10;;
20379;SDS011;10349;48.666;8.948;2022-11-02T15:08:03;2.20;;;1.10;;
20379;SDS011;10349;48.666;8.948;2022-11-02T15:10:35;7.93;;;1.20;;
20379;SDS011;10349;48.666;8.948;2022-11-02T15:25:32;2.43;;;1.40;;
20379;SDS011;10349;48.666;8.948;2022-11-02T15:28:03;1.20;;;1.10;;
20379;SDS011;10349;48.666;8.948;2022-11-02T15:30:42;2.57;;;1.27;;
20379;SDS011;10349;48.666;8.948;2022-11-02T15:33:14;4.13;;;1.30;;
20379;SDS011;10349;48.666;8.948;2022-11-02T15:35:48;2.40;;;1.30;;
20379;SDS011;10349;48.666;8.948;2022-11-02T15:38:17;3.73;;;1.27;;
20379;SDS011;10349;48.666;8.948;2022-11-02T15:40:52;1.80;;;1.30;;
20379;SDS011;10349;48.666;8.948;2022-11-02T15:57:23;2.50;;;1.60;;
20379;SDS011;10349;48.666;8.948;2022-11-02T16:02:45;4.60;;;1.10;;
20379;SDS011;10349;48.666;8.948;2022-11-02T16:05:23;4.63;;;1.43;;
20379;SDS011;10349;48.666;8.948;2022-11-02T16:07:55;5.37;;;1.40;;
20379;SDS011;10349;48.666;8.948;2022-11-02T16:10:26;2.40;;;1.10;;
20379;SDS011;10349;48.666;8.948;2022-11-02T16:12:57;5.23;;;1.73;;
20379;SDS011;10349;48.666;8.948;2022-11-02T16:15:24;5.13;;;1.40;;
20379;SDS011;10349;48.666;8.948;2022-11-02T16:17:51;4.57;;;1.40;;
20379;SDS011;10349;48.666;8.948;2022-11-02T16:20:27;3.37;;;1.30;;
20379;SDS011;10349;48.666;8.948;2022-11-02T16:22:59;4.77;;;1.83;;
20379;SDS011;10349;48.666;8.948;2022-11-02T16:28:00;7.90;;;1.20;;
20379;SDS011;10349;48.666;8.948;2022-11-02T16:30:56;2.10;;;1.47;;
20379;SDS011;10349;48.666;8.948;2022-11-02T16:37:09;5.27;;;2.00;;
20379;SDS011;10349;48.666;8.948;2022-11-02T16:39:42;4.13;;;2.30;;
20379;SDS011;10349;48.666;8.948;2022-11-02T16:42:16;3.27;;;2.00;;
20379;SDS011;10349;48.666;8.948;2022-11-02T16:44:53;3.60;;;3.00;;
20379;SDS011;10349;48.666;8.948;2022-11-02T16:47:38;5.70;;;2.90;;
20379;SDS011;10349;48.666;8.948;2022-11-02T16:50:19;4.87;;;3.20;;
20379;SDS011;10349;48.666;8.948;2022-11-02T16:52:57;4.93;;;3.80;;
20379;SDS011;10349;48.666;8.948;2022-11-02T16:55:45;11.57;;;3.50;;
20379;SDS011;10349;48.666;8.948;2022-11-02T16:58:22;6.70;;;6.10;;
20379;SDS011;10349;48.666;8.948;2022-11-02T17:00:59;7.40;;;5.60;;
20379;SDS011;10349;48.666;8.948;2022-11-02T17:03:33;4.57;;;4.17;;
20379;SDS011;10349;48.666;8.948;2022-11-02T17:06:04;4.87;;;2.90;;
20379;SDS011;10349;48.666;8.948;2022-11-02T17:08:32;4.00;;;3.70;;
20379;SDS011;10349;48.666;8.948;2022-11-02T17:11:03;6.80;;;6.10;;
20379;SDS011;10349;48.666;8.948;2022-11-02T17:13:37;4.13;;;2.87;;
20379;SDS011;10349;48.666;8.948;2022-11-02T17:16:16;4.20;;;2.80;;
20379;SDS011;10349;48.666;8.948;2022-11-02T17:18:42;5.13;;;3.73;;
20379;SDS011;10349;48.666;8.948;2022-11-02T17:23:41;4.70;;;4.13;;
20379;SDS011;10349;48.666;8.948;2022-11-02T17:28:47;3.53;;;2.83;;
20379;SDS011;10349;48.666;8.948;2022-11-02T17:31:17;4.03;;;3.73;;
20379;SDS011;10349;48.666;8.948;2022-11-02T17:34:15;5.80;;;4.30;;
20379;SDS011;10349;48.666;8.948;2022-11-02T17:36:43;3.93;;;3.53;;
20379;SDS011;10349;48.666;8.948;2022-11-02T17:39:15;5.10;;;3.70;;
20379;SDS011;10349;48.666;8.948;2022-11-02T17:41:48;4.73;;;4.17;;
20379;SDS011;10349;48.666;8.948;2022-11-02T17:44:38;5.00;;;4.60;;
20379;SDS011;10349;48.666;8.948;2022-11-02T17:47:13;5.30;;;4.90;;
20379;SDS011;10349;48.666;8.948;2022-11-02T17:49:41;10.30;;;6.70;;
20379;SDS011;10349;48.666;8.948;2022-11-02T17:52:09;6.60;;;4.70;;
20379;SDS011;10349;48.666;8.948;2022-11-02T17:54:38;3.93;;;3.40;;
20379;SDS011;10349;48.666;8.948;2022-11-02T17:57:07;10.53;;;4.23;;
20379;SDS011;10349;48.666;8.948;2022-11-02T17:59:37;5.80;;;4.57;;
20379;SDS011;10349;48.666;8.948;2022-11-02T18:02:07;7.03;;;4.10;;
20379;SDS011;10349;48.666;8.948;2022-11-02T18:04:36;6.50;;;4.40;;